Stations météo

réclame
Mon MeteoGroup
Epinal, France (7173): Température de l'air & dewpoint: 11.07.2018 13:00:00 - 17.07.2018 13:00:00 (CEST)Epinal, France (7173): Vitesse du vent & gusts: 11.07.2018 13:00:00 - 17.07.2018 13:00:00 (CEST)Epinal, France (7173): Direction du vent: 11.07.2018 13:00:00 - 17.07.2018 13:00:00 (CEST)Epinal, France (7173): Ensoleillement: 11.07.2018 13:00:00 - 17.07.2018 13:00:00 (CEST)Epinal, France (7173): Quantités de précipitations: 11.07.2018 13:00:00 - 17.07.2018 13:00:00 (CEST)
Date & Time tt [°C] td [°C] ff [km/h] ff [knt] fx [km/h] fx [knt] dd sd [min] rr [mm]
17.07.2018 13:00:00 26,1 13,9 13 7 24 13 SW 42 0,0
17.07.2018 12:00:00 25,3 12,8 9 5 21 11 SW 42 0,0
17.07.2018 11:00:00 24,9 11,8 5 3 18 10 WSW 60 0,0
17.07.2018 10:00:00 22,9 13,1 9 5 15 8 SW 36 0,0
17.07.2018 09:00:00 22,0 12,8 11 6 16 9 SW 60 0,0
17.07.2018 08:00:00 18,8 13,9 5 3 9 5 SSW 48 -
17.07.2018 07:00:00 15,6 13,3 4 2 4 2 N 30 0,0
17.07.2018 06:00:00 14,3 12,7 0 0 5 3 N 0 0,0
17.07.2018 05:00:00 15,3 12,8 4 2 13 7 ESE 0 0,0
17.07.2018 04:00:00 14,7 12,9 0 0 4 2 N 0 0,0
17.07.2018 03:00:00 15,2 12,9 0 0 5 3 N 0 0,0
17.07.2018 02:00:00 16,0 13,1 4 2 5 3 ESE 0 -
17.07.2018 01:00:00 17,2 13,3 2 1 4 2 ENE 0 0,0
17.07.2018 00:00:00 18,0 13,1 0 0 5 3 N 0 0,0
16.07.2018 23:00:00 19,1 12,8 0 0 5 3 N 0 0,0
16.07.2018 22:00:00 21,0 12,7 0 0 8 4 N 0 0,0
16.07.2018 21:00:00 25,5 11,3 8 4 16 9 N 36 0,0
16.07.2018 20:00:00 27,3 10,1 11 6 21 11 N 60 -
16.07.2018 19:00:00 28,1 10,8 11 6 22 12 N 60 0,0
16.07.2018 18:00:00 28,5 10,2 16 9 26 14 N 60 0,0
16.07.2018 17:00:00 27,6 10,3 9 5 34 18 N 48 0,0
16.07.2018 16:00:00 28,7 10,4 8 4 29 16 N 54 0,0
16.07.2018 15:00:00 28,1 12,4 11 6 21 11 NW 48 0,0
16.07.2018 14:00:00 27,6 12,0 5 3 18 10 E 60 -
16.07.2018 13:00:00 26,7 12,4 8 4 18 10 NNW 60 0,0
16.07.2018 12:00:00 25,9 12,0 2 1 11 6 S 60 0,0
16.07.2018 11:00:00 24,3 12,3 4 2 15 8 WNW 60 0,0
16.07.2018 10:00:00 22,8 13,3 2 1 8 4 W 60 0,0
16.07.2018 09:00:00 20,2 13,9 0 0 4 2 N 48 0,0
16.07.2018 08:00:00 18,2 13,5 0 0 0 0 N 60 -
16.07.2018 07:00:00 13,5 12,9 0 0 8 4 N 12 0,0
16.07.2018 06:00:00 12,8 12,2 2 1 8 4 ESE 0 0,0
16.07.2018 05:00:00 12,9 12,1 0 0 5 3 N 0 0,0
16.07.2018 04:00:00 14,0 12,6 0 0 9 5 N 0 0,0
16.07.2018 03:00:00 15,8 13,8 5 3 13 7 NNE 0 0,0
16.07.2018 02:00:00 15,7 13,9 2 1 11 6 S 0 -
16.07.2018 01:00:00 17,3 14,4 4 2 9 5 SSE 0 0,0
16.07.2018 00:00:00 18,6 14,9 5 3 13 7 SSE 0 0,0
15.07.2018 23:00:00 17,0 15,7 5 3 11 6 SE 0 0,0
15.07.2018 22:00:00 18,1 14,8 5 3 26 14 ENE 0 0,4
15.07.2018 21:00:00 19,7 13,8 13 7 37 20 E 0 1,0
15.07.2018 20:00:00 22,7 14,0 5 3 22 12 SSW 0 -
15.07.2018 19:00:00 25,5 13,0 5 3 13 7 ESE 18 0,0
15.07.2018 18:00:00 24,2 14,0 2 1 24 13 ENE 18 0,0
15.07.2018 17:00:00 24,3 14,1 11 6 42 23 NE 18 0,0
15.07.2018 16:00:00 27,2 12,8 8 4 16 9 WSW 24 0,0
15.07.2018 15:00:00 28,3 12,2 8 4 18 10 SW 12 0,0
15.07.2018 14:00:00 27,9 12,7 9 5 18 10 W 30 -
15.07.2018 13:00:00 28,2 12,5 2 1 18 10 ESE 60 0,0
15.07.2018 12:00:00 25,6 12,1 13 7 21 11 SSW 54 0,0
15.07.2018 11:00:00 24,1 13,3 8 4 21 11 SE 0 0,0
15.07.2018 10:00:00 24,4 13,0 11 6 22 12 SSW 48 0,0
15.07.2018 09:00:00 22,7 14,5 9 5 13 7 S 60 0,0
15.07.2018 08:00:00 19,1 14,6 0 0 5 3 N 18 -
15.07.2018 07:00:00 17,1 13,6 4 2 9 5 NNE 0 0,0
15.07.2018 06:00:00 16,5 13,0 4 2 9 5 SSE 0 0,0
15.07.2018 05:00:00 17,0 13,7 2 1 13 7 SE 0 0,0
15.07.2018 04:00:00 18,1 14,2 4 2 11 6 ENE 0 0,0
15.07.2018 03:00:00 17,6 13,9 4 2 9 5 SE 0 0,0
15.07.2018 02:00:00 18,1 14,2 2 1 5 3 E 0 -
15.07.2018 01:00:00 18,3 14,6 2 1 8 4 E 0 0,0
15.07.2018 00:00:00 18,5 14,0 4 2 4 2 ESE 0 0,0
14.07.2018 23:00:00 19,7 13,6 0 0 5 3 N 0 0,0
14.07.2018 22:00:00 21,6 13,8 0 0 8 4 N 0 0,0
14.07.2018 21:00:00 24,2 14,0 4 2 11 6 ENE 6 0,0
14.07.2018 20:00:00 27,7 12,1 8 4 18 10 NNE 42 -
14.07.2018 19:00:00 29,1 12,1 11 6 18 10 NNE 60 0,0
14.07.2018 18:00:00 28,8 11,4 5 3 15 8 NE 18 0,0
14.07.2018 17:00:00 28,7 11,3 5 3 16 9 ENE 24 0,0
14.07.2018 16:00:00 29,7 10,3 8 4 13 7 E 60 0,0
14.07.2018 15:00:00 29,1 9,8 4 2 24 13 NE 36 0,0
14.07.2018 14:00:00 28,9 10,5 4 2 21 11 SSE 48 -
14.07.2018 13:00:00 28,4 11,0 4 2 18 10 NNE 54 0,0
14.07.2018 12:00:00 27,2 12,8 8 4 15 8 NNW 60 0,0
14.07.2018 11:00:00 25,6 13,1 4 2 11 6 NNW 60 0,0
14.07.2018 10:00:00 24,3 13,2 2 1 8 4 NNW 60 0,0
14.07.2018 09:00:00 22,0 13,4 0 0 4 2 N 60 0,0
14.07.2018 08:00:00 18,2 13,1 0 0 0 0 N 60 -
14.07.2018 07:00:00 13,7 12,6 0 0 0 0 N 12 0,0
14.07.2018 06:00:00 12,2 11,4 0 0 5 3 N 0 0,0
14.07.2018 05:00:00 13,0 11,9 0 0 0 0 N 0 0,0
14.07.2018 04:00:00 13,0 11,9 0 0 4 2 N 0 0,0
14.07.2018 03:00:00 14,2 12,6 0 0 5 3 N 0 0,0
14.07.2018 02:00:00 14,9 12,9 4 2 4 2 ESE 0 -
14.07.2018 01:00:00 15,9 13,4 4 2 5 3 SE 0 0,0
14.07.2018 00:00:00 16,7 13,4 2 1 9 5 E 0 0,0
13.07.2018 23:00:00 18,3 13,4 0 0 4 2 N 0 0,0
13.07.2018 22:00:00 19,7 12,7 0 0 5 3 N 6 0,0
13.07.2018 21:00:00 22,5 13,8 0 0 8 4 N 18 0,0
13.07.2018 20:00:00 26,4 12,5 4 2 11 6 NE 24 -
13.07.2018 19:00:00 27,8 10,5 5 3 16 9 NW 48 0,0
13.07.2018 18:00:00 28,3 10,9 5 3 11 6 E 24 0,0
13.07.2018 17:00:00 28,1 9,9 5 3 16 9 N 36 0,0
13.07.2018 16:00:00 28,5 11,5 8 4 16 9 ENE 54 0,0
13.07.2018 15:00:00 26,8 10,9 4 2 21 11 NNW 42 0,0
13.07.2018 14:00:00 26,6 10,7 8 4 21 11 N 36 -
13.07.2018 13:00:00 26,5 11,0 8 4 16 9 NW 54 0,0
13.07.2018 12:00:00 26,0 12,1 5 3 13 7 ENE 60 0,0
13.07.2018 11:00:00 24,1 12,4 5 3 13 7 NNE 60 0,0
13.07.2018 10:00:00 21,9 13,0 5 3 13 7 NNE 60 0,0
13.07.2018 09:00:00 19,4 12,9 0 0 5 3 N 60 0,0
13.07.2018 08:00:00 16,1 12,3 0 0 0 0 N 60 -
13.07.2018 07:00:00 11,7 11,1 0 0 0 0 N 12 0,0
13.07.2018 06:00:00 10,6 10,0 0 0 4 2 N 0 0,0
13.07.2018 05:00:00 11,0 10,2 0 0 5 3 N 0 0,0
13.07.2018 04:00:00 11,7 10,9 0 0 0 0 N 0 0,0
13.07.2018 03:00:00 12,3 11,2 0 0 0 0 N 0 0,0
13.07.2018 02:00:00 12,8 11,4 0 0 4 2 N 0 -
13.07.2018 01:00:00 13,5 11,7 0 0 4 2 N 0 0,0
13.07.2018 00:00:00 14,8 11,9 2 1 4 2 ESE 0 0,0
12.07.2018 23:00:00 16,1 11,9 0 0 4 2 N 0 0,0
12.07.2018 22:00:00 18,1 12,3 0 0 5 3 N 6 0,0
12.07.2018 21:00:00 22,5 11,9 4 2 16 9 NNE 60 0,0
12.07.2018 20:00:00 23,6 11,3 9 5 21 11 NNE 60 -
12.07.2018 19:00:00 24,0 11,0 11 6 26 14 NNE 42 0,0
12.07.2018 18:00:00 24,8 11,0 8 4 35 19 NNE 48 0,0
12.07.2018 17:00:00 23,4 11,8 11 6 29 16 N 42 0,0
12.07.2018 16:00:00 23,5 11,9 15 8 26 14 NNW 24 0,0
12.07.2018 15:00:00 22,4 12,1 11 6 26 14 N 0 0,0
12.07.2018 14:00:00 23,0 12,0 8 4 24 13 NNE 24 -
12.07.2018 13:00:00 21,3 11,9 13 7 24 13 N 24 0,0
12.07.2018 12:00:00 21,9 12,4 8 4 21 11 N 48 0,0
12.07.2018 11:00:00 20,7 11,9 9 5 18 10 NNW 60 0,0
12.07.2018 10:00:00 19,1 10,9 5 3 11 6 N 60 0,0
12.07.2018 09:00:00 16,7 10,5 2 1 5 3 N 60 0,0
12.07.2018 08:00:00 13,8 9,4 0 0 0 0 N 60 -
12.07.2018 07:00:00 10,6 8,5 0 0 4 2 N 12 0,0
12.07.2018 06:00:00 8,5 7,6 4 2 5 3 ESE 0 0,0
12.07.2018 05:00:00 8,7 7,8 0 0 0 0 N 0 0,0
12.07.2018 04:00:00 9,1 8,0 0 0 4 2 N 0 0,0
12.07.2018 03:00:00 9,8 8,6 0 0 4 2 N 0 0,0
12.07.2018 02:00:00 10,5 8,9 0 0 5 3 N 0 -
12.07.2018 01:00:00 11,2 9,5 4 2 5 3 ESE 0 0,0
12.07.2018 00:00:00 11,7 9,8 0 0 4 2 N 0 0,0
11.07.2018 23:00:00 13,2 9,8 0 0 4 2 N 0 0,0
11.07.2018 22:00:00 15,2 9,5 0 0 4 2 N 6 0,0
11.07.2018 21:00:00 18,7 10,8 2 1 8 4 ENE 36 0,0
11.07.2018 20:00:00 19,9 8,2 4 2 15 8 ENE 36 -
11.07.2018 19:00:00 20,3 8,3 9 5 22 12 NNE 6 0,0
11.07.2018 18:00:00 21,0 8,3 9 5 24 13 N 12 0,0
11.07.2018 17:00:00 21,8 7,6 11 6 18 10 NNW 36 0,0
11.07.2018 16:00:00 20,7 7,3 11 6 21 11 NNW 12 0,0
11.07.2018 15:00:00 20,6 7,6 9 5 29 16 NNW 36 0,0
11.07.2018 14:00:00 19,8 8,5 11 6 24 13 N 24 -
11.07.2018 13:00:00 19,6 8,9 13 7 28 15 N 30 0,0

tt = Température de l'air
td = dewpoint
ff = Vitesse du vent
fx = gusts
dd = Direction du vent
sd = Ensoleillement
rr = Quantités de précipitations

stations d'obs. à proximité